Badger Spring Valley, Nevada Weather observations

Data are for 10 minute period ending at time listed.
 Day   Time   Solar   Ave.   Ave.  Ave.  Vector  Max.   Baro.   Total    
  of    of     Rad.   Air    Rel.  Wind   Wind   Wind  Press.  Precip.   
Year   Day            Temp.  Hum.  Speed  Dir.   Gust                    
2016   (PST)  Kw/m2    F      %     mph   deg.    mph    mb.     in.     
-------------------------------------------------------------------------
 239   16:20   0.43   80.0    20    8.1   181    12.4   830.7    0.00 
 239   16:30   0.37   80.0    19    8.5   171    13.1   830.6    0.00 
 239   16:40   0.32   80.1    18    8.1   172    15.9   830.5    0.00 
 239   16:50   0.26   80.6    18    9.1   174    16.7   830.4    0.00 
 239   17:00   0.23   79.8    19    9.7   183    16.1   830.4    0.00 
 239   17:10   0.17   78.8    20   10.7   176    15.3   830.3    0.00 
 239   17:20   0.06   77.5    21   11.4   178    16.8   830.2    0.00 
 239   17:30   0.10   76.9    22   10.2   179    14.7   830.3    0.00 
 239   17:40   0.07   77.0    22    8.9   179    12.6   830.3    0.00 
 239   17:50   0.04   76.3    24    9.2   174    13.2   830.3    0.00 
 239   18:00   0.02   75.7    25   10.7   168    16.0   830.4    0.00 
 239   18:10   0.02   75.3    25    8.2   171    13.4   830.4    0.00 
 239   18:20   0.01   74.5    26    5.0   156     8.4   830.4    0.00 
 239   18:30   0.00   73.6    27    3.7   165     5.8   830.5    0.00 
 239   18:40   0.00   72.7    28    3.2   164     4.7   830.6    0.00 
 239   18:50   0.00   72.2    28    3.5   153     6.2   830.6    0.00 
 239   19:00   0.00   71.9    28    2.8   155     5.1   830.7    0.00 
 239   19:10   0.00   71.0    29    1.2   172     2.8   830.7    0.00 
 239   19:20   0.00   70.3    29    0.5   223     1.9   830.7    0.00 
 239   19:30   0.00   69.4    30    0.3   244     1.9   830.9    0.00 
 239   19:40   0.00   69.1    30    0.4   292     1.5   830.9    0.00 
 239   19:50   0.00   70.3    30    2.0   226     3.7   831.0    0.00 
 239   20:00   0.00   71.3    29    3.1   220     4.3   831.1    0.00 
 239   20:10   0.00   71.5    29    3.2   221     4.2   831.1    0.00 
 239   20:20   0.00   71.3    29    3.5   226     5.3   831.1    0.00 
 239   20:30   0.00   71.0    30    3.0   218     6.3   831.1    0.00 
 239   20:40   0.00   70.7    30    1.9   229     3.9   831.1    0.00 
 239   20:50   0.00   70.9    30    3.7   232     5.9   831.1    0.00 
 239   21:00   0.00   71.3    30    4.7   232     6.4   831.2    0.00 
 239   21:10   0.00   71.3    29    5.1   228     6.5   831.3    0.00 
 239   21:20   0.00   71.0    30    4.6   239     6.9   831.3    0.00 
 239   21:30   0.00   70.5    30    4.8   226     8.8   831.3    0.00 
 239   21:40   0.00   70.6    30    5.0   218     7.0   831.2    0.00 
 239   21:50   0.00   70.7    31    4.4   242     7.0   831.3    0.00 
 239   22:00   0.00   70.7    32    3.5   232     5.1   831.4    0.00 
 239   22:10   0.00   70.2    33    3.9   232     5.7   831.4    0.00 
 239   22:20   0.00   69.9    33    3.4   274     5.6   831.5    0.00 
 239   22:30   0.00   67.6    35    4.6   303     6.3   831.5    0.00 
 239   22:40   0.00   68.0    35    4.4   292     6.0   831.5    0.00 
 239   22:50   0.00   67.9    35    4.3   333     5.9   831.7    0.00 
 239   23:00   0.00   68.9    34   17.3   356    29.1   831.9    0.00 
 239   23:10   0.00   68.1    35   22.3   350    31.9   832.2    0.00 
 239   23:20   100.00  99999.0   99999  99999.0   99999   99999.0   99999.0   99999.00 
 239   23:30   100.00  99999.0   99999  99999.0   99999   99999.0   99999.0   99999.00 
 239   23:40   100.00  99999.0   99999  99999.0   99999   99999.0   99999.0   99999.00 
 239   23:50   100.00  99999.0   99999  99999.0   99999   99999.0   99999.0   99999.00 
 240    0:00   0.00   63.7    48    6.8    26    11.9   832.3    0.00 
 240    0:10   0.00   63.7    49    8.7    95    16.8   832.3    0.00 
 240    0:20   0.00   63.0    50    9.9    77    17.4   832.2    0.00 
 240    0:30   0.00   62.8    50    8.7    76    15.6   832.1    0.00 
 240    0:40   0.00   62.5    52    7.5    69    12.3   832.2    0.00 
 240    0:50   0.00   62.2    52    7.5    60    12.8   832.2    0.00 
 240    1:00   0.00   61.9    53    7.6    60    13.2   832.1    0.00 
 240    1:10   0.00   61.9    53    7.8    57    14.3   832.2    0.00 
 240    1:20   0.00   61.4    54    3.9    52    10.6   832.2    0.00 
 240    1:30   0.00   60.9    57    1.7   323     3.4   832.3    0.00 
 240    1:40   0.00   60.2    60    2.5    26     5.6   832.3    0.00 
 240    1:50   0.00   60.1    60    1.8   254     3.6   832.2    0.00 
 240    2:00   0.00   60.2    60    3.0   293     4.8   832.0    0.00 
 240    2:10   0.00   59.8    62    3.7   286     4.7   832.1    0.00 
 240    2:20   0.00   60.2    61    3.3   235     4.9   832.1    0.00 
 240    2:30   0.00   60.3    61    3.7   195     5.8   832.1    0.00 
 240    2:40   0.00   60.0    64    3.7   168     9.1   832.0    0.00 
 240    2:50   0.00   59.4    66    4.6   166    10.0   832.1    0.00 
 240    3:00   0.00   58.8    67    5.0   168     8.3   832.2    0.00 
 240    3:10   0.00   57.5    70    6.0   191     8.8   832.1    0.00 
 240    3:20   0.00   56.8    71    3.2   210     4.9   832.3    0.00 
 240    3:30   0.00   56.6    72    4.1   226     5.8   832.3    0.00 
 240    3:40   0.00   56.2    72    4.0   255     6.3   832.4    0.00 
 240    3:50   0.00   55.9    72    5.5   245     7.4   832.3    0.00 
 240    4:00   0.00   56.2    71    5.0   265     7.1   832.4    0.00 
 240    4:10   0.00   56.1    71    4.8   260     7.5   832.6    0.00 
 240    4:20   0.00   56.0    71    4.1   252     7.3   832.6    0.00 
 240    4:30   0.00   56.4    70    4.3   252     7.9   832.7    0.00 
 240    4:40   0.00   56.4    69    3.6   268     6.3   832.8    0.00 
 240    4:50   0.00   56.3    69    3.8   241     6.4   832.8    0.00 
 240    5:00   0.00   56.8    68    3.9   254     7.2   832.7    0.00 
 240    5:10   0.00   57.1    67    3.8   253     6.9   832.8    0.00 
 240    5:20   0.00   56.9    67    1.8   264     3.7   832.9    0.00 
 240    5:30   0.01   56.4    68    4.7   289     6.8   833.0    0.00 
 240    5:40   0.01   55.4    69    5.2   285     7.2   833.0    0.00 
 240    5:50   0.02   56.4    66    4.5   278     7.0   833.1    0.00 
 240    6:00   0.02   57.0    64    4.5   244     7.2   833.1    0.00 
 240    6:10   0.05   56.9    66    2.6   249     5.8   833.2    0.00 
 240    6:20   0.15   57.7    66    1.1   227     2.8   833.3    0.00 
 240    6:30   0.20   60.8    60    2.3   241     3.7   833.3    0.00 
 240    6:40   0.24   62.3    56    2.3   256     4.2   833.3    0.00 
 240    6:50   0.28   65.0    50    2.6   243     4.4   833.4    0.00 
 240    7:00   0.32   67.0    46    1.9   199     4.3   833.5    0.00 
 240    7:10   0.35   67.5    46    3.9   168     7.2   833.8    0.00 
 240    7:20   0.40   67.6    46    4.3   154     8.3   833.8    0.00 
 240    7:30   0.40   67.9    45    6.4   168    11.2   833.9    0.00 
 240    7:40   0.47   68.4    45    5.8   177    10.1   834.0    0.00 
 240    7:50   0.52   68.4    45    5.5   151     8.8   834.0    0.00 
 240    8:00   0.55   68.1    46    6.6   129     9.9   834.0    0.00 
 240    8:10   0.58   68.6    45    4.4   110     8.6   834.0    0.00 
 240    8:20   0.62   69.8    41    4.0   167     7.1   834.0    0.00 
 240    8:30   0.66   69.6    41    4.9   141    11.1   834.0    0.00 
 240    8:40   0.69   69.8    40    3.7   136     7.7   834.0    0.00 
 240    8:50   0.72   70.9    39    6.5   137    10.6   834.0    0.00 
 240    9:00   0.76   70.9    39    6.0   123    10.6   834.0    0.00 
 240    9:10   0.80   71.5    38    5.8   144    10.0   833.9    0.00 
 240    9:20   0.82   72.6    36    6.1   177    10.7   833.9    0.00 
 240    9:30   0.86   73.8    36    6.8   179    12.3   833.9    0.00 
 240    9:40   0.89   73.6    37    7.6   168    12.0   834.0    0.00 
 240    9:50   0.85   73.8    38    6.6   166    11.9   834.0    0.00 
 240   10:00   0.84   73.2    40    5.8   148    12.8   834.0    0.00 
 240   10:10   0.86   73.1    41    5.5   132    11.7   834.0    0.00 
 240   10:20   0.92   72.1    43    7.8   129    13.3   834.0    0.00 
 240   10:30   0.82   71.7    43    7.0   135    12.3   834.0    0.00 
 240   10:40   0.85   71.4    44    9.0   131    18.1   834.0    0.00 
 240   10:50   0.70   70.7    44    9.3   139    15.5   833.9    0.00 
 240   11:00   0.72   70.6    42    8.8   144    13.5   833.9    0.00 
 240   11:10   0.98   71.2    41    8.2   149    13.0   833.8    0.00 
 240   11:20   1.07   71.4    40    8.5   158    13.4   833.7    0.00 
 240   11:30   1.12   71.7    40    5.2   146    13.2   833.7    0.00 
 240   11:40   1.08   73.5    37    8.7   147    16.1   833.6    0.00 
 240   11:50   0.77   72.1    39    7.1   136    13.6   833.6    0.00 
 240   12:00   0.66   72.0    39    6.1   155    13.7   833.6    0.00 
 240   12:10   0.77   72.5    38    8.7   157    13.9   833.5    0.00 
 240   12:20   0.94   72.2    38    9.1   152    14.8   833.5    0.00 
 240   12:30   0.97   72.5    38    8.0   150    14.1   833.5    0.00 
 240   12:40   1.06   73.3    37    8.5   130    15.2   833.3    0.00 
 240   12:50   0.87   73.7    36    8.9   146    15.6   833.3    0.00 
 240   13:00   0.79   73.3    36    8.2   133    17.5   833.2    0.00 
 240   13:10   1.03   74.0    36    8.9   140    17.9   833.2    0.00 
 240   13:20   0.70   74.5    35   10.0   149    16.7   833.0    0.00 
 240   13:30   0.83   74.4    35    9.9   139    15.6   832.9    0.00 
 240   13:40   0.99   74.9    34   10.6   144    16.0   832.9    0.00 
 240   13:50   0.92   75.2    33   10.8   144    17.9   832.8    0.00 
 240   14:00   0.62   75.1    33   10.6   136    17.9   832.7    0.00 
 240   14:10   0.58   74.0    34    9.8   134    14.8   832.6    0.00 
 240   14:20   0.54   73.5    34    8.7   134    16.0   832.6    0.00 
 240   14:30   0.71   74.0    34   10.2   133    15.9   832.5    0.00 
 240   14:40   0.80   75.4    32    7.7   160    14.5   832.5    0.00 
 240   14:50   0.69   76.0    32    8.7   143    13.9   832.5    0.00 
 240   15:00   0.54   75.8    31    8.3   144    14.5   832.3    0.00 
 240   15:10   0.41   74.9    32    6.9   147    12.2   832.3    0.00 
 240   15:20   0.22   73.9    33    8.5   161    15.2   832.5    0.00 
 240   15:30   0.12   72.7    34    7.0   152    12.4   832.6    0.00 
 240   15:40   0.10   71.8    35    8.8   149    13.0   832.6    0.00 
 240   15:50   0.33   71.6    35    8.8   150    12.9   832.5    0.00 
 240   16:00   0.49   73.5    32    9.9   153    13.5   832.5    0.00 
 240   16:10   0.48   73.5    32    9.2   144    14.1   832.5    0.00 

Return to Badger Spring Valley graphs page.


Western Regional Climate Center,wrcc@dri.edu